»·PEaware :: SWA1898 KJAC-KBOI

SWA1898 :: KJAC-KBOI

FLIGHT INFORMATION

Flight Status: Arrived
Operator:
Southwest Airlines
More flights by this operator :: More flights under this callsign
Pilot: Anonymous 17611 (17611)
Aircraft: BOEING 737-300
(B733)
More flights by this aircraft type
Origin: KJAC Jackson Hole
United States
Destination: KBOI Boise Air Terminal/Gowen
United States
More flights between these airports :: More routes between these airports
Route: +TETON3 IDA REAPS KOURT3
File this flight plan on PilotEdge
Remarks:
Altitude:
(Current/Filed)
32,000ft
Speed:
(Current/Filed)
480kts
Departed: 05-Feb-18 05:50 PM
Arrived: 05-Feb-18 06:39 PM
Distance/Time
Traveled:
238nm/0:49
Distance/Time
To Go:
Arrived

Flight Plot

Page will automatically refresh every two minutes.

Flight plan parsing failed; only flown route is shown


Map Options




Map Legend


Flown Route
Filed Route
Departure Airport
Arrival Airport
Navaid (VOR, NDB)
Fix

Horizontal Profiles

Position Reports

Time Latitude Longitude Heading Altitude Ground
Speed
05-Feb-18 17:25 43.600536 -110.737135 290 6421ft 0kts
05-Feb-18 17:26 43.600536 -110.737135 290 6421ft 0kts
05-Feb-18 17:27 43.600536 -110.737135 290 6421ft 0kts
05-Feb-18 17:28 43.600536 -110.737135 290 6421ft 0kts
05-Feb-18 17:29 43.600536 -110.737135 290 6421ft 0kts
05-Feb-18 17:30 43.600536 -110.737135 290 6421ft 0kts
05-Feb-18 17:31 43.600536 -110.737135 290 6421ft 0kts
05-Feb-18 17:32 43.600536 -110.737135 290 6421ft 0kts
05-Feb-18 17:33 43.600536 -110.737135 290 6421ft 0kts
05-Feb-18 17:34 43.600536 -110.737135 290 6421ft 0kts
05-Feb-18 17:35 43.600536 -110.737135 290 6421ft 0kts
05-Feb-18 17:36 43.600536 -110.737135 290 6421ft 0kts
05-Feb-18 17:37 43.600536 -110.737135 290 6421ft 0kts
05-Feb-18 17:38 43.600536 -110.737135 290 6421ft 0kts
05-Feb-18 17:39 43.600536 -110.737135 290 6421ft 0kts
05-Feb-18 17:40 43.600536 -110.737135 290 6421ft 0kts
05-Feb-18 17:41 43.600536 -110.737135 290 6421ft 0kts
05-Feb-18 17:42 43.600536 -110.737135 290 6421ft 0kts
05-Feb-18 17:43 43.600536 -110.737135 290 6421ft 0kts
05-Feb-18 17:44 43.600536 -110.737135 290 6421ft 0kts
05-Feb-18 17:45 43.600536 -110.737135 290 6421ft 0kts
05-Feb-18 17:46 43.600536 -110.737135 290 6421ft 0kts
05-Feb-18 17:47 43.600536 -110.737135 290 6421ft 0kts
05-Feb-18 17:48 43.600536 -110.737136 290 6421ft 0kts
05-Feb-18 17:49 43.600536 -110.737136 290 6421ft 0kts
05-Feb-18 17:50 43.600662 -110.737491 292 6421ft 4kts
05-Feb-18 17:51 43.602533 -110.738500 19 6423ft 9kts
05-Feb-18 17:52 43.605699 -110.736951 18 6429ft 15kts
05-Feb-18 17:53 43.610337 -110.734701 22 6439ft 19kts
05-Feb-18 17:54 43.614662 -110.732595 4 6447ft 0kts
05-Feb-18 17:55 43.614910 -110.732623 341 6447ft 1kts
05-Feb-18 17:56 43.607873 -110.737502 199 6432ft 128kts
05-Feb-18 17:57 43.558135 -110.761104 200 8656ft 232kts
05-Feb-18 17:58 43.491465 -110.793246 207 12362ft 265kts
05-Feb-18 17:59 43.417423 -110.844078 209 14725ft 333kts
05-Feb-18 18:00 43.336497 -110.902454 209 14991ft 335kts
05-Feb-18 18:01 43.294113 -110.995310 283 16753ft 335kts
05-Feb-18 18:02 43.322476 -111.108596 265 18891ft 344kts
05-Feb-18 18:03 43.314674 -111.232675 268 20842ft 354kts
05-Feb-18 18:04 43.309080 -111.365819 268 22754ft 363kts
05-Feb-18 18:05 43.303386 -111.503875 268 24521ft 373kts
05-Feb-18 18:06 43.297359 -111.646166 268 26154ft 382kts
05-Feb-18 18:07 43.291236 -111.786655 268 27657ft 390kts
05-Feb-18 18:08 43.284634 -111.933858 268 29098ft 398kts
05-Feb-18 18:09 43.277701 -112.083920 268 30857ft 394kts
05-Feb-18 18:10 43.270718 -112.231021 268 32034ft 382kts
05-Feb-18 18:11 43.263824 -112.372678 268 32012ft 375kts
05-Feb-18 18:12 43.256733 -112.514644 268 32025ft 376kts
05-Feb-18 18:13 43.249495 -112.655953 268 32026ft 376kts
05-Feb-18 18:14 43.242100 -112.796971 268 32030ft 376kts
05-Feb-18 18:15 43.234478 -112.938870 268 32028ft 376kts
05-Feb-18 18:16 43.226670 -113.080952 268 32029ft 375kts
05-Feb-18 18:17 43.218704 -113.222660 268 32030ft 375kts
05-Feb-18 18:18 43.210547 -113.364645 268 32031ft 375kts
05-Feb-18 18:19 43.202271 -113.505615 268 32037ft 375kts
05-Feb-18 18:20 43.193792 -113.647034 268 32025ft 376kts
05-Feb-18 18:21 43.185254 -113.786618 268 32007ft 376kts
05-Feb-18 18:22 43.176340 -113.929302 268 30920ft 376kts
05-Feb-18 18:23 43.167303 -114.071217 267 29051ft 380kts
05-Feb-18 18:24 43.186331 -114.211126 286 27168ft 380kts
05-Feb-18 18:25 43.213571 -114.350300 286 25303ft 384kts
05-Feb-18 18:26 43.240118 -114.487376 286 23438ft 374kts
05-Feb-18 18:27 43.265707 -114.621730 286 21864ft 364kts
05-Feb-18 18:28 43.290433 -114.752275 285 21381ft 371kts
05-Feb-18 18:29 43.315624 -114.885136 285 18713ft 356kts
05-Feb-18 18:30 43.339849 -115.013665 285 16168ft 340kts
05-Feb-18 18:31 43.362839 -115.136727 285 15947ft 333kts
05-Feb-18 18:32 43.384806 -115.257724 286 14346ft 317kts
05-Feb-18 18:34 43.405058 -115.368158 286 12961ft 292kts
05-Feb-18 18:35 43.424520 -115.474352 286 11883ft 285kts
05-Feb-18 18:36 43.444026 -115.581443 286 10524ft 272kts
05-Feb-18 18:37 43.450156 -115.680131 275 9767ft 257kts
05-Feb-18 18:38 43.453746 -115.772232 275 8809ft 247kts
05-Feb-18 18:39 43.458329 -115.862604 276 7642ft 223kts
05-Feb-18 18:40 43.469726 -115.943705 296 7000ft 214kts
05-Feb-18 18:41 43.494394 -116.015782 296 5882ft 194kts
05-Feb-18 18:42 43.514635 -116.074706 297 4914ft 161kts
05-Feb-18 18:43 43.533087 -116.128413 297 4075ft 150kts
05-Feb-18 18:44 43.549757 -116.176816 297 3299ft 126kts
05-Feb-18 18:45 43.563087 -116.215915 295 2856ft 66kts
05-Feb-18 18:46 43.566562 -116.223503 22 2848ft 0kts
05-Feb-18 18:47 43.566532 -116.221303 26 2852ft 11kts
05-Feb-18 18:48 43.567303 -116.220829 24 2850ft 0kts

Navigation Log

Ident Type
Flight plan parsing failed, navigation log unavailable